createdAt,value
2022-10-16T00:01:28.784Z,14.63
2022-10-16T00:07:00.672Z,14.56
2022-10-16T00:12:32.286Z,14.51
2022-10-16T00:18:04.100Z,14.47
2022-10-16T00:20:15.870Z,14.02
2022-10-16T00:25:47.646Z,14.19
2022-10-16T00:31:19.618Z,14.25
2022-10-16T00:36:51.297Z,14.28
2022-10-16T00:42:23.252Z,14.29
2022-10-16T00:47:54.514Z,14.28
2022-10-16T00:53:26.218Z,14.27
2022-10-16T00:58:58.005Z,14.26
2022-10-16T01:04:29.816Z,14.25
2022-10-16T01:10:01.671Z,14.23
2022-10-16T01:15:33.314Z,14.22
2022-10-16T01:21:05.116Z,14.18
2022-10-16T01:26:36.903Z,14.14
2022-10-16T01:34:21.177Z,13.63
2022-10-16T01:39:52.627Z,13.80
2022-10-16T01:45:23.974Z,13.88
2022-10-16T01:50:55.689Z,13.92
2022-10-16T01:56:27.497Z,13.94
2022-10-16T02:01:59.179Z,13.95
2022-10-16T02:07:30.893Z,13.95
2022-10-16T02:13:02.416Z,13.94
2022-10-16T02:18:34.139Z,13.93
2022-10-16T02:24:05.900Z,13.91
2022-10-16T02:29:37.475Z,13.88
2022-10-16T02:35:09.434Z,13.84
2022-10-16T02:40:41.018Z,13.80
2022-10-16T02:46:12.981Z,13.76
2022-10-16T02:51:44.522Z,13.72
2022-10-16T02:57:16.263Z,13.68
2022-10-16T03:02:48.015Z,13.65
2022-10-16T03:08:19.981Z,13.61
2022-10-16T03:13:51.675Z,13.58
2022-10-16T03:19:23.513Z,13.56
2022-10-16T03:24:55.239Z,13.55
2022-10-16T03:30:26.778Z,13.55
2022-10-16T03:35:58.528Z,13.56
2022-10-16T03:41:29.804Z,13.58
2022-10-16T03:47:01.100Z,13.62
2022-10-16T03:52:32.970Z,13.65
2022-10-16T03:58:04.683Z,13.69
2022-10-16T04:03:36.514Z,13.74
2022-10-16T04:09:08.334Z,13.78
2022-10-16T04:14:39.946Z,13.82
2022-10-16T04:20:11.617Z,13.84
2022-10-16T04:25:43.394Z,13.90
2022-10-16T04:31:15.315Z,13.95
2022-10-16T04:36:47.593Z,13.96
2022-10-16T04:42:19.250Z,13.96
2022-10-16T04:47:50.990Z,13.97
2022-10-16T04:53:22.613Z,13.97
2022-10-16T04:58:54.123Z,13.97
2022-10-16T05:04:25.718Z,13.93
2022-10-16T05:09:57.425Z,13.91
2022-10-16T05:15:28.804Z,13.91
2022-10-16T05:21:00.506Z,13.92
2022-10-16T05:26:32.235Z,13.93
2022-10-16T05:32:03.691Z,13.94
2022-10-16T05:37:35.581Z,13.94
2022-10-16T05:43:07.110Z,13.95
2022-10-16T05:48:38.947Z,13.98
2022-10-16T05:54:10.552Z,14.00
2022-10-16T05:59:41.890Z,14.00
2022-10-16T06:05:13.477Z,13.99
2022-10-16T06:10:45.028Z,13.97
2022-10-16T06:16:16.786Z,13.95
2022-10-16T06:21:48.434Z,13.92
2022-10-16T06:27:20.407Z,13.91
2022-10-16T06:32:52.232Z,13.91
2022-10-16T06:38:24.011Z,13.91
2022-10-16T06:43:58.021Z,13.91
2022-10-16T06:49:29.567Z,13.91
2022-10-16T06:55:01.413Z,13.93
2022-10-16T07:00:33.037Z,13.98
2022-10-16T07:06:04.805Z,14.04
2022-10-16T07:11:36.541Z,14.15
2022-10-16T07:17:08.295Z,14.37
2022-10-16T07:22:40.098Z,14.71
2022-10-16T07:28:11.831Z,15.22
2022-10-16T07:33:43.608Z,15.95
2022-10-16T07:39:15.333Z,16.79
2022-10-16T07:44:47.082Z,17.58
2022-10-16T07:50:18.896Z,18.25
2022-10-16T07:55:50.538Z,18.87
2022-10-16T08:01:22.108Z,19.45
2022-10-16T08:06:53.478Z,20.04
2022-10-16T08:12:25.240Z,20.62
2022-10-16T08:17:57.158Z,21.15
2022-10-16T08:23:28.939Z,21.64
2022-10-16T08:29:00.989Z,22.10
2022-10-16T08:34:32.966Z,22.51
2022-10-16T08:45:34.652Z,23.18
2022-10-16T08:51:06.698Z,23.46
2022-10-16T08:56:38.703Z,23.70
2022-10-16T09:02:10.962Z,23.84
2022-10-16T09:07:43.395Z,23.90
2022-10-16T09:13:15.398Z,23.93
2022-10-16T09:18:47.214Z,23.92
2022-10-16T09:24:19.109Z,23.88
2022-10-16T09:29:51.977Z,23.84
2022-10-16T09:35:23.673Z,23.82
2022-10-16T09:40:59.254Z,23.80
2022-10-16T09:46:27.339Z,23.78
2022-10-16T09:51:59.486Z,23.78
2022-10-16T09:57:31.487Z,23.78
2022-10-16T10:08:33.066Z,23.78
2022-10-16T10:14:04.758Z,23.82
2022-10-16T10:19:36.356Z,23.87
2022-10-16T10:27:28.364Z,23.64
2022-10-16T10:33:00.219Z,23.82
2022-10-16T10:38:32.014Z,23.92
2022-10-16T10:44:03.987Z,24.00
2022-10-16T10:49:35.864Z,24.08
2022-10-16T10:55:07.603Z,24.16
2022-10-16T11:00:39.569Z,24.23
2022-10-16T11:06:11.212Z,24.28
2022-10-16T11:11:43.034Z,24.32
2022-10-16T11:17:14.969Z,24.38
2022-10-16T11:22:47.116Z,24.45
2022-10-16T11:28:18.807Z,24.50
2022-10-16T11:33:50.629Z,24.55
2022-10-16T11:39:22.205Z,24.60
2022-10-16T11:44:54.109Z,24.65
2022-10-16T11:50:25.774Z,24.70
2022-10-16T11:55:57.575Z,24.77
2022-10-16T12:01:29.357Z,24.86
2022-10-16T12:07:01.282Z,24.94
2022-10-16T12:12:39.821Z,25.05
2022-10-16T12:18:11.453Z,25.13
2022-10-16T12:23:49.272Z,25.19
2022-10-16T12:29:21.054Z,25.27
2022-10-16T12:34:52.524Z,25.32
2022-10-16T12:40:24.495Z,25.36
2022-10-16T12:45:56.611Z,25.38
2022-10-16T12:51:28.591Z,25.36
2022-10-16T12:57:00.319Z,25.33
2022-10-16T13:02:31.635Z,25.30
2022-10-16T13:08:03.842Z,25.27
2022-10-16T13:13:36.011Z,25.26
2022-10-16T13:19:10.939Z,25.30
2022-10-16T13:24:42.693Z,25.26
2022-10-16T13:30:14.980Z,25.16
2022-10-16T13:35:46.853Z,25.08
2022-10-16T13:41:24.408Z,25.00
2022-10-16T13:46:56.494Z,24.96
2022-10-16T13:52:30.608Z,24.90
2022-10-16T13:58:03.859Z,24.83
2022-10-16T14:03:35.855Z,24.83
2022-10-16T14:09:07.628Z,24.87
2022-10-16T14:14:39.500Z,24.84
2022-10-16T14:20:11.560Z,24.77
2022-10-16T14:25:43.309Z,24.72
2022-10-16T14:31:17.369Z,24.71
2022-10-16T14:36:49.506Z,24.68
2022-10-16T14:42:21.787Z,24.61
2022-10-16T14:47:53.846Z,24.55
2022-10-16T14:53:25.590Z,24.44
2022-10-16T14:58:57.595Z,24.30
2022-10-16T15:04:29.658Z,24.15
2022-10-16T15:10:01.422Z,24.03
2022-10-16T15:15:33.201Z,23.89
2022-10-16T15:21:05.370Z,23.75
2022-10-16T15:26:36.980Z,23.65
2022-10-16T15:32:09.092Z,23.53
2022-10-16T15:37:41.472Z,23.39
2022-10-16T15:43:13.283Z,23.30
2022-10-16T15:48:44.961Z,23.19
2022-10-16T15:54:16.558Z,23.10
2022-10-16T15:59:48.691Z,23.03
2022-10-16T16:05:20.614Z,22.92
2022-10-16T16:10:53.688Z,22.81
2022-10-16T16:16:25.569Z,22.73
2022-10-16T16:21:58.675Z,22.61
2022-10-16T16:27:33.354Z,22.42
2022-10-16T16:33:05.478Z,22.22
2022-10-16T16:38:37.289Z,22.02
2022-10-16T16:44:09.153Z,21.86
2022-10-16T16:49:42.325Z,21.78
2022-10-16T16:55:14.343Z,21.69
2022-10-16T17:00:56.424Z,21.57
2022-10-16T17:06:20.670Z,21.47
2022-10-16T17:11:50.065Z,21.36
2022-10-16T17:17:22.316Z,21.26
2022-10-16T17:22:54.421Z,21.11
2022-10-16T17:28:26.364Z,20.92
2022-10-16T17:33:59.614Z,20.76
2022-10-16T17:39:31.784Z,20.61
2022-10-16T17:45:03.615Z,20.49
2022-10-16T17:50:35.105Z,20.37
2022-10-16T17:56:09.310Z,20.25
2022-10-16T18:01:41.185Z,20.12
2022-10-16T18:12:44.954Z,19.88
2022-10-16T18:18:17.036Z,19.74
2022-10-16T18:23:51.714Z,19.60
2022-10-16T18:29:20.731Z,19.47
2022-10-16T18:34:53.031Z,19.33
2022-10-16T18:40:25.171Z,19.20
2022-10-16T18:45:56.860Z,19.09
2022-10-16T18:51:28.338Z,18.97
2022-10-16T18:57:00.142Z,18.84
2022-10-16T19:02:32.079Z,18.71
2022-10-16T19:08:04.413Z,18.56
2022-10-16T19:13:36.193Z,18.40
2022-10-16T19:19:08.037Z,18.24
2022-10-16T19:24:40.035Z,18.09
2022-10-16T19:38:04.463Z,17.07
2022-10-16T19:43:36.363Z,17.21
2022-10-16T19:49:07.951Z,17.22
2022-10-16T19:54:39.535Z,17.16
2022-10-16T20:00:12.821Z,17.06
2022-10-16T20:05:44.637Z,16.95
2022-10-16T20:11:16.582Z,16.85
2022-10-16T20:16:48.383Z,16.74
2022-10-16T20:22:20.415Z,16.65
2022-10-16T20:27:52.094Z,16.54
2022-10-16T20:33:23.968Z,16.43
2022-10-16T20:38:55.876Z,16.32
2022-10-16T20:44:27.891Z,16.23
2022-10-16T20:49:59.354Z,16.15
2022-10-16T20:55:31.133Z,16.10
2022-10-16T21:01:02.997Z,16.04
2022-10-16T21:06:34.905Z,15.96
2022-10-16T21:12:06.529Z,15.88
2022-10-16T21:17:38.332Z,15.81
2022-10-16T21:23:10.046Z,15.73
2022-10-16T21:28:41.849Z,15.64
2022-10-16T21:34:13.783Z,15.55
2022-10-16T21:45:17.417Z,15.42
2022-10-16T21:50:49.122Z,15.37
2022-10-16T21:56:20.991Z,15.33
2022-10-16T22:01:52.781Z,15.28
2022-10-16T22:07:24.702Z,15.23
2022-10-16T22:12:56.122Z,15.18
2022-10-16T22:18:28.147Z,15.13
2022-10-16T22:23:59.789Z,15.08
2022-10-16T22:29:31.610Z,15.02
2022-10-16T22:35:03.738Z,14.96
2022-10-16T22:40:36.026Z,14.88
2022-10-16T22:46:08.320Z,14.79
2022-10-16T22:51:40.393Z,14.71
2022-10-16T22:57:12.361Z,14.62
2022-10-16T23:02:44.730Z,14.54
2022-10-16T23:08:16.932Z,14.46
2022-10-16T23:13:49.021Z,14.37
2022-10-16T23:19:20.775Z,14.29
2022-10-16T23:24:52.552Z,14.21
2022-10-16T23:30:24.221Z,14.15
2022-10-16T23:35:56.217Z,14.08
2022-10-16T23:41:27.985Z,14.01
2022-10-16T23:47:00.094Z,13.95
2022-10-16T23:52:33.906Z,13.88
2022-10-16T23:58:05.819Z,13.82
